createdAt,value
2022-10-01T00:00:15.638Z,100669.71
2022-10-01T00:05:19.262Z,100663.52
2022-10-01T00:10:23.463Z,100656.16
2022-10-01T00:15:27.239Z,100658.59
2022-10-01T00:20:31.146Z,100661.65
2022-10-01T00:25:35.151Z,100655.51
2022-10-01T00:30:45.995Z,100657.27
2022-10-01T00:35:50.415Z,100655.64
2022-10-01T00:40:54.936Z,100650.20
2022-10-01T00:46:04.612Z,100645.50
2022-10-01T00:51:13.451Z,100650.83
2022-10-01T00:56:18.333Z,100649.00
2022-10-01T01:01:24.134Z,100652.00
2022-10-01T01:06:28.336Z,100650.88
2022-10-01T01:11:39.969Z,100656.44
2022-10-01T01:16:50.590Z,100650.13
2022-10-01T01:21:59.777Z,100653.41
2022-10-01T01:27:16.737Z,100652.30
2022-10-01T01:32:25.455Z,100652.92
2022-10-01T01:37:35.137Z,100652.22
2022-10-01T01:42:42.115Z,100647.02
2022-10-01T01:47:47.131Z,100643.27
2022-10-01T01:52:51.115Z,100644.66
2022-10-01T01:57:56.355Z,100646.16
2022-10-01T02:03:01.225Z,100645.70
2022-10-01T02:08:23.119Z,100638.92
2022-10-01T02:13:41.465Z,100635.89
2022-10-01T02:18:50.273Z,100640.92
2022-10-01T02:23:59.390Z,100640.59
2022-10-01T02:29:07.653Z,100638.36
2022-10-01T02:34:19.405Z,100637.69
2022-10-01T02:39:27.436Z,100628.52
2022-10-01T02:44:37.569Z,100626.42
2022-10-01T02:49:41.757Z,100624.54
2022-10-01T02:54:53.052Z,100620.29
2022-10-01T02:59:59.354Z,100607.60
2022-10-01T03:05:04.192Z,100598.98
2022-10-01T03:10:10.173Z,100592.92
2022-10-01T03:15:17.891Z,100583.55
2022-10-01T03:20:22.418Z,100574.17
2022-10-01T03:25:26.687Z,100571.06
2022-10-01T03:30:30.399Z,100575.38
2022-10-01T03:35:34.236Z,100570.60
2022-10-01T03:40:38.586Z,100570.19
2022-10-01T03:45:42.829Z,100564.69
2022-10-01T03:50:54.495Z,100564.54
2022-10-01T03:55:59.631Z,100566.14
2022-10-01T04:01:03.340Z,100566.73
2022-10-01T04:06:07.554Z,100570.26
2022-10-01T04:11:12.229Z,100568.75
2022-10-01T04:16:16.156Z,100570.98
2022-10-01T04:21:20.273Z,100569.84
2022-10-01T04:26:24.779Z,100570.38
2022-10-01T04:31:34.262Z,100555.42
2022-10-01T04:36:38.199Z,100548.95
2022-10-01T04:41:42.026Z,100547.90
2022-10-01T04:46:46.550Z,100552.63
2022-10-01T04:51:50.802Z,100555.36
2022-10-01T04:56:54.434Z,100557.03
2022-10-01T05:01:58.226Z,100563.63
2022-10-01T05:07:01.942Z,100564.59
2022-10-01T05:12:07.614Z,100567.06
2022-10-01T05:17:11.540Z,100565.79
2022-10-01T05:22:15.325Z,100559.77
2022-10-01T05:27:19.621Z,100556.48
2022-10-01T05:32:24.060Z,100551.92
2022-10-01T05:37:27.901Z,100549.02
2022-10-01T05:42:32.168Z,100544.05
2022-10-01T05:47:35.994Z,100547.18
2022-10-01T05:53:07.127Z,100548.00
2022-10-01T05:58:16.998Z,100544.58
2022-10-01T06:03:38.350Z,100540.77
2022-10-01T06:08:52.478Z,100529.83
2022-10-01T06:14:03.238Z,100520.11
2022-10-01T06:19:06.976Z,100525.77
2022-10-01T06:24:12.320Z,100525.43
2022-10-01T06:29:16.259Z,100518.52
2022-10-01T06:34:20.281Z,100512.40
2022-10-01T06:39:24.139Z,100507.46
2022-10-01T06:44:28.132Z,100511.52
2022-10-01T06:49:31.678Z,100504.29
2022-10-01T06:54:35.200Z,100499.45
2022-10-01T06:59:38.794Z,100492.53
2022-10-01T07:04:42.449Z,100484.89
2022-10-01T07:09:46.234Z,100472.62
2022-10-01T07:14:49.763Z,100470.20
2022-10-01T07:19:53.306Z,100466.73
2022-10-01T07:24:56.880Z,100465.43
2022-10-01T07:30:00.444Z,100464.38
2022-10-01T07:35:05.460Z,100461.60
2022-10-01T07:40:10.268Z,100454.92
2022-10-01T07:45:13.934Z,100443.85
2022-10-01T07:50:19.100Z,100434.02
2022-10-01T07:55:26.058Z,100427.88
2022-10-01T08:00:32.407Z,100423.70
2022-10-01T08:05:37.309Z,100416.52
2022-10-01T08:10:42.425Z,100408.64
2022-10-01T08:15:49.470Z,100409.64
2022-10-01T08:20:56.256Z,100402.40
2022-10-01T08:26:01.414Z,100397.52
2022-10-01T08:31:09.336Z,100384.36
2022-10-01T08:36:16.491Z,100379.13
2022-10-01T08:41:31.176Z,100366.52
2022-10-01T08:46:37.366Z,100361.05
2022-10-01T08:51:48.449Z,100352.55
2022-10-01T08:56:54.446Z,100346.15
2022-10-01T09:01:58.981Z,100339.38
2022-10-01T09:07:10.216Z,100334.39
2022-10-01T09:12:27.838Z,100321.16
2022-10-01T09:17:52.626Z,100311.02
2022-10-01T09:23:11.684Z,100300.37
2022-10-01T09:28:19.302Z,100300.70
2022-10-01T09:33:22.746Z,100298.95
2022-10-01T09:38:34.137Z,100296.55
2022-10-01T09:43:40.207Z,100299.60
2022-10-01T09:48:49.487Z,100295.58
2022-10-01T09:54:04.710Z,100289.91
2022-10-01T09:59:16.848Z,100286.96
2022-10-01T10:04:23.266Z,100284.21
2022-10-01T10:09:32.159Z,100278.02
2022-10-01T10:14:39.693Z,100273.38
2022-10-01T10:19:48.963Z,100275.66
2022-10-01T10:24:53.654Z,100275.73
2022-10-01T10:30:08.142Z,100264.39
2022-10-01T10:35:15.804Z,100258.27
2022-10-01T10:40:27.008Z,100252.36
2022-10-01T10:45:39.478Z,100241.52
2022-10-01T10:50:46.137Z,100237.17
2022-10-01T10:56:00.653Z,100228.91
2022-10-01T11:01:09.885Z,100222.02
2022-10-01T11:06:18.046Z,100213.66
2022-10-01T11:11:36.446Z,100205.60
2022-10-01T11:16:54.099Z,100201.38
2022-10-01T11:22:14.101Z,100190.15
2022-10-01T11:27:25.787Z,100184.48
2022-10-01T11:32:37.478Z,100169.02
2022-10-01T11:37:59.416Z,100162.04
2022-10-01T11:43:07.003Z,100153.91
2022-10-01T11:48:18.944Z,100149.13
2022-10-01T11:53:31.790Z,100145.23
2022-10-01T11:58:52.508Z,100140.10
2022-10-01T12:04:16.119Z,100132.96
2022-10-01T12:09:24.524Z,100126.23
2022-10-01T12:14:37.759Z,100115.06
2022-10-01T12:19:49.879Z,100111.86
2022-10-01T12:24:54.015Z,100098.78
2022-10-01T12:30:04.698Z,100091.50
2022-10-01T12:35:23.156Z,100087.59
2022-10-01T12:40:34.029Z,100080.10
2022-10-01T12:45:48.656Z,100071.40
2022-10-01T12:51:04.645Z,100063.86
2022-10-01T12:56:16.179Z,100055.60
2022-10-01T13:01:31.733Z,100045.27
2022-10-01T13:06:47.497Z,100037.35
2022-10-01T13:12:11.553Z,100030.96
2022-10-01T13:17:21.403Z,100030.52
2022-10-01T13:22:34.600Z,100030.67
2022-10-01T13:27:43.601Z,100032.61
2022-10-01T13:32:57.153Z,100020.54
2022-10-01T13:38:14.607Z,100013.44
2022-10-01T13:43:23.489Z,100011.71
2022-10-01T13:48:34.268Z,100004.25
2022-10-01T13:53:49.511Z,99994.48
2022-10-01T13:58:53.234Z,99992.91
2022-10-01T14:04:04.602Z,99989.60
2022-10-01T14:09:16.500Z,99981.09
2022-10-01T14:14:44.560Z,99983.89
2022-10-01T14:19:50.511Z,99981.98
2022-10-01T14:25:14.345Z,99977.63
2022-10-01T14:30:22.842Z,99975.67
2022-10-01T14:35:33.753Z,99965.88
2022-10-01T14:40:40.044Z,99960.20
2022-10-01T14:45:54.877Z,99961.88
2022-10-01T14:51:03.982Z,99956.48
2022-10-01T14:56:12.856Z,99945.42
2022-10-01T15:01:21.447Z,99935.18
2022-10-01T15:06:29.150Z,99927.61
2022-10-01T15:11:34.959Z,99911.58
2022-10-01T15:16:40.170Z,99904.63
2022-10-01T15:21:49.879Z,99904.31
2022-10-01T15:26:58.318Z,99896.89
2022-10-01T15:32:08.205Z,99888.02
2022-10-01T15:37:20.956Z,99875.58
2022-10-01T15:42:29.940Z,99872.36
2022-10-01T15:47:36.882Z,99864.16
2022-10-01T15:52:50.767Z,99861.84
2022-10-01T15:57:57.699Z,99854.75
2022-10-01T16:03:02.253Z,99855.16
2022-10-01T16:08:09.693Z,99851.71
2022-10-01T16:13:42.754Z,99848.96
2022-10-01T16:18:56.143Z,99849.73
2022-10-01T16:24:27.417Z,99847.45
2022-10-01T16:29:35.010Z,99845.95
2022-10-01T16:34:41.648Z,99851.02
2022-10-01T16:39:45.730Z,99908.73
2022-10-01T16:44:50.856Z,99926.34
2022-10-01T16:49:54.611Z,99921.02
2022-10-01T16:54:58.292Z,99921.85
2022-10-01T17:00:02.339Z,99918.77
2022-10-01T17:05:16.434Z,99916.83
2022-10-01T17:10:22.281Z,99911.88
2022-10-01T17:15:29.937Z,99911.36
2022-10-01T17:20:33.949Z,99907.94
2022-10-01T17:25:40.074Z,99906.09
2022-10-01T17:30:45.967Z,99899.98
2022-10-01T17:35:51.376Z,99901.73
2022-10-01T17:40:56.838Z,99898.13
2022-10-01T17:46:01.889Z,99886.04
2022-10-01T17:51:08.186Z,99887.23
2022-10-01T17:56:14.856Z,99885.61
2022-10-01T18:01:22.326Z,99883.27
2022-10-01T18:07:08.315Z,99881.64
2022-10-01T18:12:12.838Z,99879.45
2022-10-01T18:17:17.466Z,99877.89
2022-10-01T18:22:23.374Z,99875.15
2022-10-01T18:27:27.640Z,99875.35
2022-10-01T18:32:37.372Z,99877.27
2022-10-01T18:37:46.249Z,99876.59
2022-10-01T18:42:55.189Z,99874.69
2022-10-01T18:48:11.156Z,99867.50
2022-10-01T18:53:39.989Z,99862.19
2022-10-01T18:58:57.391Z,99862.61
2022-10-01T19:04:28.795Z,99860.92
2022-10-01T19:09:43.675Z,99859.02
2022-10-01T19:15:03.382Z,99855.50
2022-10-01T19:20:23.472Z,99858.61
2022-10-01T19:25:33.103Z,99858.31
2022-10-01T19:30:56.837Z,99854.08
2022-10-01T19:36:01.198Z,99854.97
2022-10-01T19:41:14.277Z,99858.40
2022-10-01T19:46:22.788Z,99856.95
2022-10-01T19:51:32.557Z,99856.49
2022-10-01T19:56:37.842Z,99858.92
2022-10-01T20:01:49.059Z,99861.16
2022-10-01T20:06:59.871Z,99860.05
2022-10-01T20:12:11.072Z,99854.80
2022-10-01T20:17:22.158Z,99856.47
2022-10-01T20:22:36.416Z,99854.23
2022-10-01T20:27:49.594Z,99857.20
2022-10-01T20:33:00.990Z,99859.14
2022-10-01T20:38:11.281Z,99858.42
2022-10-01T20:43:18.024Z,99861.35
2022-10-01T20:55:48.897Z,99863.11
2022-10-01T21:01:00.112Z,99866.62
2022-10-01T21:06:11.944Z,99871.36
2022-10-01T21:11:25.007Z,99872.82
2022-10-01T21:16:52.413Z,99870.70
2022-10-01T21:22:06.274Z,99874.69
2022-10-01T21:27:26.516Z,99876.96
2022-10-01T21:32:47.196Z,99879.06
2022-10-01T21:38:01.835Z,99880.41
2022-10-01T21:43:18.507Z,99888.42
2022-10-01T21:48:38.978Z,99891.42
2022-10-01T21:54:02.820Z,99890.46
2022-10-01T21:59:16.325Z,99892.52
2022-10-01T22:04:26.988Z,99897.61
2022-10-01T22:09:39.047Z,99901.16
2022-10-01T22:14:45.538Z,99904.88
2022-10-01T22:19:52.257Z,99908.46
2022-10-01T22:24:59.309Z,99911.79
2022-10-01T22:30:10.956Z,99920.93
2022-10-01T22:35:20.507Z,99917.18
2022-10-01T22:40:28.797Z,99923.77
2022-10-01T22:45:47.671Z,99925.73
2022-10-01T22:51:04.567Z,99929.58
2022-10-01T22:56:13.931Z,99926.76
2022-10-01T23:01:30.534Z,99932.56
2022-10-01T23:06:50.780Z,99937.98
2022-10-01T23:12:04.099Z,99940.14
2022-10-01T23:17:14.538Z,99939.40
2022-10-01T23:22:36.024Z,99948.67
2022-10-01T23:27:50.749Z,99950.06
2022-10-01T23:33:11.647Z,99946.95
2022-10-01T23:38:35.035Z,99949.51
2022-10-01T23:43:46.279Z,99955.71
2022-10-01T23:48:55.891Z,99957.29
2022-10-01T23:54:04.764Z,99961.72
2022-10-01T23:59:16.009Z,99967.83
